sensor_id;sensor_type;location;lat;lon;timestamp;temperature;humidity
59847;DHT22;45728;48.788;2.302;2023-02-22T00:00:12;9.40;99.90
59847;DHT22;45728;48.788;2.302;2023-02-22T00:02:49;9.60;99.90
59847;DHT22;45728;48.788;2.302;2023-02-22T00:05:16;9.60;99.90
59847;DHT22;45728;48.788;2.302;2023-02-22T00:07:48;9.60;99.90
59847;DHT22;45728;48.788;2.302;2023-02-22T00:10:15;9.60;99.90
59847;DHT22;45728;48.788;2.302;2023-02-22T00:12:48;9.70;99.90
59847;DHT22;45728;48.788;2.302;2023-02-22T00:15:16;9.60;99.90
59847;DHT22;45728;48.788;2.302;2023-02-22T00:17:42;9.70;99.90
59847;DHT22;45728;48.788;2.302;2023-02-22T00:20:10;9.70;99.90
59847;DHT22;45728;48.788;2.302;2023-02-22T00:22:42;9.70;99.90
59847;DHT22;45728;48.788;2.302;2023-02-22T00:25:09;9.70;99.90
59847;DHT22;45728;48.788;2.302;2023-02-22T00:27:35;9.70;99.90
59847;DHT22;45728;48.788;2.302;2023-02-22T00:30:04;9.80;99.90
59847;DHT22;45728;48.788;2.302;2023-02-22T00:32:30;9.60;99.90
59847;DHT22;45728;48.788;2.302;2023-02-22T00:34:57;9.60;99.90
59847;DHT22;45728;48.788;2.302;2023-02-22T00:37:23;9.70;99.90
59847;DHT22;45728;48.788;2.302;2023-02-22T00:39:49;9.70;99.90
59847;DHT22;45728;48.788;2.302;2023-02-22T00:42:17;9.80;99.90
59847;DHT22;45728;48.788;2.302;2023-02-22T00:44:43;9.80;99.90
59847;DHT22;45728;48.788;2.302;2023-02-22T00:47:10;9.80;99.90
59847;DHT22;45728;48.788;2.302;2023-02-22T00:49:36;9.80;99.90
59847;DHT22;45728;48.788;2.302;2023-02-22T00:52:02;9.80;99.90
59847;DHT22;45728;48.788;2.302;2023-02-22T00:54:29;9.90;99.90
59847;DHT22;45728;48.788;2.302;2023-02-22T00:56:55;9.80;99.90
59847;DHT22;45728;48.788;2.302;2023-02-22T00:59:23;9.80;99.90
59847;DHT22;45728;48.788;2.302;2023-02-22T01:01:49;9.80;99.90
59847;DHT22;45728;48.788;2.302;2023-02-22T01:04:15;9.90;99.90
59847;DHT22;45728;48.788;2.302;2023-02-22T01:06:43;9.90;99.90
59847;DHT22;45728;48.788;2.302;2023-02-22T01:09:09;9.90;99.90
59847;DHT22;45728;48.788;2.302;2023-02-22T01:11:35;9.90;99.90
59847;DHT22;45728;48.788;2.302;2023-02-22T01:14:01;9.90;99.90
59847;DHT22;45728;48.788;2.302;2023-02-22T01:16:27;9.80;99.90
59847;DHT22;45728;48.788;2.302;2023-02-22T01:18:53;9.80;99.90
59847;DHT22;45728;48.788;2.302;2023-02-22T01:21:19;9.80;99.90
59847;DHT22;45728;48.788;2.302;2023-02-22T01:23:46;9.80;99.90
59847;DHT22;45728;48.788;2.302;2023-02-22T01:26:12;9.90;99.90
59847;DHT22;45728;48.788;2.302;2023-02-22T01:28:38;9.90;99.90
59847;DHT22;45728;48.788;2.302;2023-02-22T01:31:04;9.90;99.90
59847;DHT22;45728;48.788;2.302;2023-02-22T01:33:31;9.90;99.90
59847;DHT22;45728;48.788;2.302;2023-02-22T01:35:58;9.90;99.90
59847;DHT22;45728;48.788;2.302;2023-02-22T01:38:24;9.90;99.90
59847;DHT22;45728;48.788;2.302;2023-02-22T01:40:51;9.90;99.90
59847;DHT22;45728;48.788;2.302;2023-02-22T01:43:27;9.90;99.90
59847;DHT22;45728;48.788;2.302;2023-02-22T01:46:02;9.90;99.90
59847;DHT22;45728;48.788;2.302;2023-02-22T01:48:38;9.90;99.90
59847;DHT22;45728;48.788;2.302;2023-02-22T01:51:17;9.90;99.90
59847;DHT22;45728;48.788;2.302;2023-02-22T01:54:01;9.90;99.90
59847;DHT22;45728;48.788;2.302;2023-02-22T01:56:30;9.80;99.90
59847;DHT22;45728;48.788;2.302;2023-02-22T01:59:02;9.90;99.90
59847;DHT22;45728;48.788;2.302;2023-02-22T02:01:31;9.80;99.90
59847;DHT22;45728;48.788;2.302;2023-02-22T02:04:00;9.70;99.90
59847;DHT22;45728;48.788;2.302;2023-02-22T02:06:31;9.70;99.90
59847;DHT22;45728;48.788;2.302;2023-02-22T02:09:03;9.70;99.90
59847;DHT22;45728;48.788;2.302;2023-02-22T02:11:31;9.80;99.90
59847;DHT22;45728;48.788;2.302;2023-02-22T02:13:58;9.80;99.90
59847;DHT22;45728;48.788;2.302;2023-02-22T02:16:45;9.80;99.90
59847;DHT22;45728;48.788;2.302;2023-02-22T02:28:20;9.90;99.90
59847;DHT22;45728;48.788;2.302;2023-02-22T02:36:28;9.80;99.90
59847;DHT22;45728;48.788;2.302;2023-02-22T02:39:07;9.80;99.90
59847;DHT22;45728;48.788;2.302;2023-02-22T02:41:41;9.80;99.90
59847;DHT22;45728;48.788;2.302;2023-02-22T02:44:36;9.70;99.90
59847;DHT22;45728;48.788;2.302;2023-02-22T02:47:16;9.80;99.90
59847;DHT22;45728;48.788;2.302;2023-02-22T02:49:46;9.70;99.90
59847;DHT22;45728;48.788;2.302;2023-02-22T02:52:14;9.70;99.90
59847;DHT22;45728;48.788;2.302;2023-02-22T02:54:42;9.70;99.90
59847;DHT22;45728;48.788;2.302;2023-02-22T02:57:10;9.70;99.90
59847;DHT22;45728;48.788;2.302;2023-02-22T02:59:37;9.60;99.90
59847;DHT22;45728;48.788;2.302;2023-02-22T03:10:54;9.40;99.90
59847;DHT22;45728;48.788;2.302;2023-02-22T03:18:47;9.40;99.90
59847;DHT22;45728;48.788;2.302;2023-02-22T03:26:52;9.10;99.90
59847;DHT22;45728;48.788;2.302;2023-02-22T03:29:22;9.10;99.90
59847;DHT22;45728;48.788;2.302;2023-02-22T03:31:55;9.10;99.90
59847;DHT22;45728;48.788;2.302;2023-02-22T03:34:34;9.10;99.90
59847;DHT22;45728;48.788;2.302;2023-02-22T03:37:10;9.10;99.90
59847;DHT22;45728;48.788;2.302;2023-02-22T03:39:39;9.00;99.90
59847;DHT22;45728;48.788;2.302;2023-02-22T03:42:14;9.10;99.90
59847;DHT22;45728;48.788;2.302;2023-02-22T03:44:43;9.10;99.90
59847;DHT22;45728;48.788;2.302;2023-02-22T03:47:13;9.10;99.90
59847;DHT22;45728;48.788;2.302;2023-02-22T03:49:44;9.20;99.90
59847;DHT22;45728;48.788;2.302;2023-02-22T03:52:12;9.20;99.90
59847;DHT22;45728;48.788;2.302;2023-02-22T03:54:38;9.20;99.90
59847;DHT22;45728;48.788;2.302;2023-02-22T03:57:18;9.30;99.90
59847;DHT22;45728;48.788;2.302;2023-02-22T03:59:47;9.30;99.90
59847;DHT22;45728;48.788;2.302;2023-02-22T04:02:13;9.30;99.90
59847;DHT22;45728;48.788;2.302;2023-02-22T04:04:39;9.30;99.90
59847;DHT22;45728;48.788;2.302;2023-02-22T04:07:05;9.30;99.90
59847;DHT22;45728;48.788;2.302;2023-02-22T04:09:31;9.30;99.90
59847;DHT22;45728;48.788;2.302;2023-02-22T04:11:57;9.30;99.90
59847;DHT22;45728;48.788;2.302;2023-02-22T04:14:23;9.30;99.90
59847;DHT22;45728;48.788;2.302;2023-02-22T04:16:49;9.20;99.90
59847;DHT22;45728;48.788;2.302;2023-02-22T04:19:16;9.30;99.90
59847;DHT22;45728;48.788;2.302;2023-02-22T04:21:42;9.20;99.90
59847;DHT22;45728;48.788;2.302;2023-02-22T04:24:08;9.10;99.90
59847;DHT22;45728;48.788;2.302;2023-02-22T04:26:34;9.10;99.90
59847;DHT22;45728;48.788;2.302;2023-02-22T04:29:00;9.10;99.90
59847;DHT22;45728;48.788;2.302;2023-02-22T04:31:27;9.20;99.90
59847;DHT22;45728;48.788;2.302;2023-02-22T04:33:53;9.20;99.90
59847;DHT22;45728;48.788;2.302;2023-02-22T04:36:19;9.20;99.90
59847;DHT22;45728;48.788;2.302;2023-02-22T04:38:46;9.10;99.90
59847;DHT22;45728;48.788;2.302;2023-02-22T04:41:13;9.00;99.90
59847;DHT22;45728;48.788;2.302;2023-02-22T04:43:39;9.10;99.90
59847;DHT22;45728;48.788;2.302;2023-02-22T04:46:05;9.10;99.90
59847;DHT22;45728;48.788;2.302;2023-02-22T04:48:31;9.10;99.90
59847;DHT22;45728;48.788;2.302;2023-02-22T04:50:57;9.10;99.90
59847;DHT22;45728;48.788;2.302;2023-02-22T04:53:23;9.10;99.90
59847;DHT22;45728;48.788;2.302;2023-02-22T04:55:49;9.10;99.90
59847;DHT22;45728;48.788;2.302;2023-02-22T04:58:15;9.20;99.90
59847;DHT22;45728;48.788;2.302;2023-02-22T05:00:41;9.10;99.90
59847;DHT22;45728;48.788;2.302;2023-02-22T05:03:07;9.20;99.90
59847;DHT22;45728;48.788;2.302;2023-02-22T05:05:33;9.20;99.90
59847;DHT22;45728;48.788;2.302;2023-02-22T05:08:00;9.10;99.90
59847;DHT22;45728;48.788;2.302;2023-02-22T05:10:26;9.10;99.90
59847;DHT22;45728;48.788;2.302;2023-02-22T05:12:52;9.20;99.90
59847;DHT22;45728;48.788;2.302;2023-02-22T05:15:19;9.20;99.90
59847;DHT22;45728;48.788;2.302;2023-02-22T05:17:46;9.30;99.90
59847;DHT22;45728;48.788;2.302;2023-02-22T05:20:28;9.20;99.90
59847;DHT22;45728;48.788;2.302;2023-02-22T05:22:56;9.30;99.90
59847;DHT22;45728;48.788;2.302;2023-02-22T05:25:23;9.30;99.90
59847;DHT22;45728;48.788;2.302;2023-02-22T05:27:58;9.20;99.90
59847;DHT22;45728;48.788;2.302;2023-02-22T05:30:28;9.20;99.90
59847;DHT22;45728;48.788;2.302;2023-02-22T05:32:55;9.20;99.90
59847;DHT22;45728;48.788;2.302;2023-02-22T05:35:22;9.20;99.90
59847;DHT22;45728;48.788;2.302;2023-02-22T05:37:48;9.10;99.90
59847;DHT22;45728;48.788;2.302;2023-02-22T05:40:17;9.10;99.90
59847;DHT22;45728;48.788;2.302;2023-02-22T05:42:43;9.00;99.90
59847;DHT22;45728;48.788;2.302;2023-02-22T05:45:12;9.10;99.90
59847;DHT22;45728;48.788;2.302;2023-02-22T05:47:39;9.10;99.90
59847;DHT22;45728;48.788;2.302;2023-02-22T05:50:05;9.10;99.90
59847;DHT22;45728;48.788;2.302;2023-02-22T05:52:32;9.10;99.90
59847;DHT22;45728;48.788;2.302;2023-02-22T05:54:58;9.10;99.90
59847;DHT22;45728;48.788;2.302;2023-02-22T05:57:24;9.10;99.90
59847;DHT22;45728;48.788;2.302;2023-02-22T05:59:50;9.20;99.90
59847;DHT22;45728;48.788;2.302;2023-02-22T06:02:16;9.20;99.90
59847;DHT22;45728;48.788;2.302;2023-02-22T06:04:46;9.10;99.90
59847;DHT22;45728;48.788;2.302;2023-02-22T06:07:13;9.20;99.90
59847;DHT22;45728;48.788;2.302;2023-02-22T06:09:39;9.20;99.90
59847;DHT22;45728;48.788;2.302;2023-02-22T06:12:06;9.10;99.90
59847;DHT22;45728;48.788;2.302;2023-02-22T06:14:33;9.00;99.90
59847;DHT22;45728;48.788;2.302;2023-02-22T06:16:59;9.00;99.90
59847;DHT22;45728;48.788;2.302;2023-02-22T06:19:26;9.10;99.90
59847;DHT22;45728;48.788;2.302;2023-02-22T06:21:56;9.00;99.90
59847;DHT22;45728;48.788;2.302;2023-02-22T06:24:25;9.10;99.90
59847;DHT22;45728;48.788;2.302;2023-02-22T06:26:55;9.10;99.90
59847;DHT22;45728;48.788;2.302;2023-02-22T06:29:23;9.20;99.90
59847;DHT22;45728;48.788;2.302;2023-02-22T06:31:49;9.20;99.90
59847;DHT22;45728;48.788;2.302;2023-02-22T06:34:16;9.20;99.90
59847;DHT22;45728;48.788;2.302;2023-02-22T06:36:42;9.30;99.90
59847;DHT22;45728;48.788;2.302;2023-02-22T06:39:09;9.40;99.90
59847;DHT22;45728;48.788;2.302;2023-02-22T06:41:36;9.40;99.90
59847;DHT22;45728;48.788;2.302;2023-02-22T06:44:03;9.40;99.90
59847;DHT22;45728;48.788;2.302;2023-02-22T06:46:30;9.40;99.90
59847;DHT22;45728;48.788;2.302;2023-02-22T06:48:56;9.30;99.90
59847;DHT22;45728;48.788;2.302;2023-02-22T06:51:25;9.30;99.90
59847;DHT22;45728;48.788;2.302;2023-02-22T06:53:51;9.30;99.90
59847;DHT22;45728;48.788;2.302;2023-02-22T06:56:19;9.30;99.90
59847;DHT22;45728;48.788;2.302;2023-02-22T06:58:45;9.30;99.90
59847;DHT22;45728;48.788;2.302;2023-02-22T07:01:11;9.40;99.90
59847;DHT22;45728;48.788;2.302;2023-02-22T07:03:38;9.40;99.90
59847;DHT22;45728;48.788;2.302;2023-02-22T07:06:06;9.40;99.90
59847;DHT22;45728;48.788;2.302;2023-02-22T07:08:32;9.40;99.90
59847;DHT22;45728;48.788;2.302;2023-02-22T07:10:59;9.40;99.90
59847;DHT22;45728;48.788;2.302;2023-02-22T07:13:25;9.30;99.90
59847;DHT22;45728;48.788;2.302;2023-02-22T07:15:51;9.30;99.90
59847;DHT22;45728;48.788;2.302;2023-02-22T07:18:18;9.30;99.90
59847;DHT22;45728;48.788;2.302;2023-02-22T07:20:44;9.30;99.90
59847;DHT22;45728;48.788;2.302;2023-02-22T07:23:13;9.20;99.90
59847;DHT22;45728;48.788;2.302;2023-02-22T07:25:40;9.20;99.90
59847;DHT22;45728;48.788;2.302;2023-02-22T07:28:06;9.20;99.90
59847;DHT22;45728;48.788;2.302;2023-02-22T07:30:32;9.20;99.90
59847;DHT22;45728;48.788;2.302;2023-02-22T07:33:01;9.20;99.90
59847;DHT22;45728;48.788;2.302;2023-02-22T07:35:30;9.20;99.90
59847;DHT22;45728;48.788;2.302;2023-02-22T07:37:57;9.20;99.90
59847;DHT22;45728;48.788;2.302;2023-02-22T07:40:25;9.20;99.90
59847;DHT22;45728;48.788;2.302;2023-02-22T07:42:58;9.00;99.90
59847;DHT22;45728;48.788;2.302;2023-02-22T07:45:30;9.10;99.90
59847;DHT22;45728;48.788;2.302;2023-02-22T07:47:57;9.10;99.90
59847;DHT22;45728;48.788;2.302;2023-02-22T07:50:25;9.10;99.90
59847;DHT22;45728;48.788;2.302;2023-02-22T07:52:53;9.10;99.90
59847;DHT22;45728;48.788;2.302;2023-02-22T07:55:22;9.00;99.90
59847;DHT22;45728;48.788;2.302;2023-02-22T07:57:50;9.00;99.90
59847;DHT22;45728;48.788;2.302;2023-02-22T08:00:40;9.00;99.90
59847;DHT22;45728;48.788;2.302;2023-02-22T08:03:07;9.10;99.90
59847;DHT22;45728;48.788;2.302;2023-02-22T08:05:35;9.10;99.90
59847;DHT22;45728;48.788;2.302;2023-02-22T08:08:02;9.10;99.90
59847;DHT22;45728;48.788;2.302;2023-02-22T08:10:29;9.00;99.90
59847;DHT22;45728;48.788;2.302;2023-02-22T08:12:55;9.00;99.90
59847;DHT22;45728;48.788;2.302;2023-02-22T08:15:26;9.10;99.90
59847;DHT22;45728;48.788;2.302;2023-02-22T08:17:56;9.00;99.90
59847;DHT22;45728;48.788;2.302;2023-02-22T08:20:24;9.00;99.90
59847;DHT22;45728;48.788;2.302;2023-02-22T08:22:50;9.00;99.90
59847;DHT22;45728;48.788;2.302;2023-02-22T08:25:19;9.00;99.90
59847;DHT22;45728;48.788;2.302;2023-02-22T08:27:45;9.00;99.90
59847;DHT22;45728;48.788;2.302;2023-02-22T08:30:18;9.00;99.90
59847;DHT22;45728;48.788;2.302;2023-02-22T08:32:48;9.10;99.90
59847;DHT22;45728;48.788;2.302;2023-02-22T08:35:16;9.20;99.90
59847;DHT22;45728;48.788;2.302;2023-02-22T08:38:03;9.10;99.90
59847;DHT22;45728;48.788;2.302;2023-02-22T08:40:31;9.20;99.90
59847;DHT22;45728;48.788;2.302;2023-02-22T08:42:58;9.10;99.90
59847;DHT22;45728;48.788;2.302;2023-02-22T08:45:26;9.20;99.90
59847;DHT22;45728;48.788;2.302;2023-02-22T08:47:53;9.20;99.90
59847;DHT22;45728;48.788;2.302;2023-02-22T08:50:27;9.20;99.90
59847;DHT22;45728;48.788;2.302;2023-02-22T08:52:56;9.20;99.90
59847;DHT22;45728;48.788;2.302;2023-02-22T08:55:29;9.20;99.90
59847;DHT22;45728;48.788;2.302;2023-02-22T08:57:58;9.30;99.90
59847;DHT22;45728;48.788;2.302;2023-02-22T09:00:26;9.40;99.90
59847;DHT22;45728;48.788;2.302;2023-02-22T09:02:54;9.30;99.90
59847;DHT22;45728;48.788;2.302;2023-02-22T09:05:20;9.30;99.90
59847;DHT22;45728;48.788;2.302;2023-02-22T09:07:46;9.30;99.90
59847;DHT22;45728;48.788;2.302;2023-02-22T09:10:21;9.40;99.90
59847;DHT22;45728;48.788;2.302;2023-02-22T09:12:50;9.40;99.90
59847;DHT22;45728;48.788;2.302;2023-02-22T09:15:17;9.50;99.90
59847;DHT22;45728;48.788;2.302;2023-02-22T09:17:44;9.50;99.90
59847;DHT22;45728;48.788;2.302;2023-02-22T09:20:10;9.60;99.90
59847;DHT22;45728;48.788;2.302;2023-02-22T09:22:37;9.60;99.90
59847;DHT22;45728;48.788;2.302;2023-02-22T09:25:04;9.70;99.90
59847;DHT22;45728;48.788;2.302;2023-02-22T09:27:30;9.70;99.90
59847;DHT22;45728;48.788;2.302;2023-02-22T09:29:57;9.70;99.90
59847;DHT22;45728;48.788;2.302;2023-02-22T09:32:24;9.80;99.90
59847;DHT22;45728;48.788;2.302;2023-02-22T09:34:53;9.70;99.90
59847;DHT22;45728;48.788;2.302;2023-02-22T09:37:19;9.70;99.90
59847;DHT22;45728;48.788;2.302;2023-02-22T09:39:45;9.70;99.90
59847;DHT22;45728;48.788;2.302;2023-02-22T09:42:16;9.70;99.90
59847;DHT22;45728;48.788;2.302;2023-02-22T09:44:54;9.70;99.90
59847;DHT22;45728;48.788;2.302;2023-02-22T09:47:39;9.70;99.90
59847;DHT22;45728;48.788;2.302;2023-02-22T09:50:10;9.80;99.90
59847;DHT22;45728;48.788;2.302;2023-02-22T09:53:06;9.80;99.90
59847;DHT22;45728;48.788;2.302;2023-02-22T09:55:38;9.90;99.90
59847;DHT22;45728;48.788;2.302;2023-02-22T09:58:17;10.00;99.90
59847;DHT22;45728;48.788;2.302;2023-02-22T10:00:46;10.00;99.90
59847;DHT22;45728;48.788;2.302;2023-02-22T10:03:24;10.00;99.90
59847;DHT22;45728;48.788;2.302;2023-02-22T10:06:00;10.00;99.90
59847;DHT22;45728;48.788;2.302;2023-02-22T10:08:30;10.10;99.90
59847;DHT22;45728;48.788;2.302;2023-02-22T10:16:39;10.00;99.90
59847;DHT22;45728;48.788;2.302;2023-02-22T10:24:58;10.20;99.90
59847;DHT22;45728;48.788;2.302;2023-02-22T11:13:59;10.20;99.90
59847;DHT22;45728;48.788;2.302;2023-02-22T11:19:00;10.20;99.90
59847;DHT22;45728;48.788;2.302;2023-02-22T11:21:29;10.30;99.90
59847;DHT22;45728;48.788;2.302;2023-02-22T11:24:00;10.30;99.90
59847;DHT22;45728;48.788;2.302;2023-02-22T11:26:27;10.30;99.90
59847;DHT22;45728;48.788;2.302;2023-02-22T11:28:53;10.30;99.90
59847;DHT22;45728;48.788;2.302;2023-02-22T11:31:24;10.30;99.90
59847;DHT22;45728;48.788;2.302;2023-02-22T11:34:00;10.30;99.90
59847;DHT22;45728;48.788;2.302;2023-02-22T11:38:56;10.40;99.90
59847;DHT22;45728;48.788;2.302;2023-02-22T11:41:29;10.40;99.90
59847;DHT22;45728;48.788;2.302;2023-02-22T11:47:11;10.30;99.90
59847;DHT22;45728;48.788;2.302;2023-02-22T11:49:43;10.20;99.90
59847;DHT22;45728;48.788;2.302;2023-02-22T11:54:56;10.20;99.90
59847;DHT22;45728;48.788;2.302;2023-02-22T12:03:19;10.20;99.90
59847;DHT22;45728;48.788;2.302;2023-02-22T12:06:03;10.30;99.90
59847;DHT22;45728;48.788;2.302;2023-02-22T12:11:17;10.30;99.90
59847;DHT22;45728;48.788;2.302;2023-02-22T12:14:15;10.40;99.90
59847;DHT22;45728;48.788;2.302;2023-02-22T12:19:46;10.40;99.90
59847;DHT22;45728;48.788;2.302;2023-02-22T12:22:32;10.40;99.90
59847;DHT22;45728;48.788;2.302;2023-02-22T12:25:01;10.40;99.90
59847;DHT22;45728;48.788;2.302;2023-02-22T12:27:40;10.40;99.90
59847;DHT22;45728;48.788;2.302;2023-02-22T12:32:52;10.40;99.90
59847;DHT22;45728;48.788;2.302;2023-02-22T12:37:57;10.50;99.90
59847;DHT22;45728;48.788;2.302;2023-02-22T12:44:05;10.40;99.90
59847;DHT22;45728;48.788;2.302;2023-02-22T12:46:15;10.30;99.90
59847;DHT22;45728;48.788;2.302;2023-02-22T12:48:53;10.30;99.90
59847;DHT22;45728;48.788;2.302;2023-02-22T12:54:06;10.20;99.90
59847;DHT22;45728;48.788;2.302;2023-02-22T12:56:52;10.30;99.90
59847;DHT22;45728;48.788;2.302;2023-02-22T12:59:32;10.30;99.90
59847;DHT22;45728;48.788;2.302;2023-02-22T13:02:10;10.30;99.90
59847;DHT22;45728;48.788;2.302;2023-02-22T13:04:37;10.20;99.90
59847;DHT22;45728;48.788;2.302;2023-02-22T13:18:10;10.20;99.90
59847;DHT22;45728;48.788;2.302;2023-02-22T13:20:47;10.20;99.90
59847;DHT22;45728;48.788;2.302;2023-02-22T13:26:14;10.10;99.90
59847;DHT22;45728;48.788;2.302;2023-02-22T13:29:01;10.10;99.90
59847;DHT22;45728;48.788;2.302;2023-02-22T13:45:45;10.10;99.90
59847;DHT22;45728;48.788;2.302;2023-02-22T13:53:42;10.20;99.90
59847;DHT22;45728;48.788;2.302;2023-02-22T13:56:12;10.20;99.90
59847;DHT22;45728;48.788;2.302;2023-02-22T13:58:53;10.10;99.90
59847;DHT22;45728;48.788;2.302;2023-02-22T14:01:37;10.10;99.90
59847;DHT22;45728;48.788;2.302;2023-02-22T14:06:46;10.10;99.90
59847;DHT22;45728;48.788;2.302;2023-02-22T14:09:16;10.00;99.90
59847;DHT22;45728;48.788;2.302;2023-02-22T14:12:02;10.10;99.90
59847;DHT22;45728;48.788;2.302;2023-02-22T14:14:28;10.00;99.90
59847;DHT22;45728;48.788;2.302;2023-02-22T14:19:59;10.00;99.90
59847;DHT22;45728;48.788;2.302;2023-02-22T14:22:27;10.00;99.90
59847;DHT22;45728;48.788;2.302;2023-02-22T14:24:56;10.00;99.90
59847;DHT22;45728;48.788;2.302;2023-02-22T14:27:22;9.90;99.90
59847;DHT22;45728;48.788;2.302;2023-02-22T14:30:20;10.00;99.90
59847;DHT22;45728;48.788;2.302;2023-02-22T14:32:49;9.90;99.90
59847;DHT22;45728;48.788;2.302;2023-02-22T14:35:17;9.80;99.90
59847;DHT22;45728;48.788;2.302;2023-02-22T14:37:54;9.80;99.90
59847;DHT22;45728;48.788;2.302;2023-02-22T14:40:24;9.90;99.90
59847;DHT22;45728;48.788;2.302;2023-02-22T14:43:10;10.00;99.90
59847;DHT22;45728;48.788;2.302;2023-02-22T14:45:46;10.00;99.90
59847;DHT22;45728;48.788;2.302;2023-02-22T14:48:27;10.00;99.90
59847;DHT22;45728;48.788;2.302;2023-02-22T14:51:14;10.00;99.90
59847;DHT22;45728;48.788;2.302;2023-02-22T14:54:06;10.00;99.90
59847;DHT22;45728;48.788;2.302;2023-02-22T14:56:39;10.00;99.90
59847;DHT22;45728;48.788;2.302;2023-02-22T15:01:46;10.00;99.90
59847;DHT22;45728;48.788;2.302;2023-02-22T15:06:45;10.00;99.90
59847;DHT22;45728;48.788;2.302;2023-02-22T15:12:10;9.90;99.90
59847;DHT22;45728;48.788;2.302;2023-02-22T15:14:39;9.90;99.90
59847;DHT22;45728;48.788;2.302;2023-02-22T15:17:20;9.90;99.90
59847;DHT22;45728;48.788;2.302;2023-02-22T15:19:48;9.90;99.90
59847;DHT22;45728;48.788;2.302;2023-02-22T15:22:34;10.00;99.90
59847;DHT22;45728;48.788;2.302;2023-02-22T15:25:04;10.10;99.90
59847;DHT22;45728;48.788;2.302;2023-02-22T15:27:31;10.30;99.90
59847;DHT22;45728;48.788;2.302;2023-02-22T15:30:28;10.20;99.90
59847;DHT22;45728;48.788;2.302;2023-02-22T15:33:16;10.30;99.90
59847;DHT22;45728;48.788;2.302;2023-02-22T15:35:43;10.30;99.90
59847;DHT22;45728;48.788;2.302;2023-02-22T15:40:35;10.30;99.90
59847;DHT22;45728;48.788;2.302;2023-02-22T15:43:06;10.30;99.90
59847;DHT22;45728;48.788;2.302;2023-02-22T15:45:35;10.30;99.90
59847;DHT22;45728;48.788;2.302;2023-02-22T15:48:11;10.30;99.90
59847;DHT22;45728;48.788;2.302;2023-02-22T15:50:37;10.20;99.90
59847;DHT22;45728;48.788;2.302;2023-02-22T15:53:22;10.10;99.90
59847;DHT22;45728;48.788;2.302;2023-02-22T15:55:56;10.10;99.90
59847;DHT22;45728;48.788;2.302;2023-02-22T15:58:25;10.10;99.90
59847;DHT22;45728;48.788;2.302;2023-02-22T16:03:25;10.10;99.90
59847;DHT22;45728;48.788;2.302;2023-02-22T16:05:58;10.20;99.90
59847;DHT22;45728;48.788;2.302;2023-02-22T16:08:45;10.20;99.90
59847;DHT22;45728;48.788;2.302;2023-02-22T16:11:23;10.20;99.90
59847;DHT22;45728;48.788;2.302;2023-02-22T16:14:21;10.20;99.90
59847;DHT22;45728;48.788;2.302;2023-02-22T16:16:42;10.30;99.90
59847;DHT22;45728;48.788;2.302;2023-02-22T16:19:31;10.10;99.90
59847;DHT22;45728;48.788;2.302;2023-02-22T16:22:02;10.10;99.90
59847;DHT22;45728;48.788;2.302;2023-02-22T16:24:31;10.20;99.90
59847;DHT22;45728;48.788;2.302;2023-02-22T16:29:29;10.10;99.90
59847;DHT22;45728;48.788;2.302;2023-02-22T16:31:55;10.10;99.90
59847;DHT22;45728;48.788;2.302;2023-02-22T16:34:21;10.00;99.90
59847;DHT22;45728;48.788;2.302;2023-02-22T16:36:48;10.00;99.90
59847;DHT22;45728;48.788;2.302;2023-02-22T16:39:23;10.10;99.90
59847;DHT22;45728;48.788;2.302;2023-02-22T16:41:50;10.10;99.90
59847;DHT22;45728;48.788;2.302;2023-02-22T16:44:16;10.10;99.90
59847;DHT22;45728;48.788;2.302;2023-02-22T16:46:43;10.10;99.90
59847;DHT22;45728;48.788;2.302;2023-02-22T16:49:10;10.00;99.90
59847;DHT22;45728;48.788;2.302;2023-02-22T16:51:44;10.10;99.90
59847;DHT22;45728;48.788;2.302;2023-02-22T16:54:13;10.10;99.90
59847;DHT22;45728;48.788;2.302;2023-02-22T16:56:39;10.10;99.90
59847;DHT22;45728;48.788;2.302;2023-02-22T16:59:12;10.10;99.90
59847;DHT22;45728;48.788;2.302;2023-02-22T17:01:41;10.00;99.90
59847;DHT22;45728;48.788;2.302;2023-02-22T17:04:20;10.00;99.90
59847;DHT22;45728;48.788;2.302;2023-02-22T17:06:47;10.10;99.90
59847;DHT22;45728;48.788;2.302;2023-02-22T17:09:13;10.10;99.90
59847;DHT22;45728;48.788;2.302;2023-02-22T17:11:46;10.10;99.90
59847;DHT22;45728;48.788;2.302;2023-02-22T17:14:17;10.00;99.90
59847;DHT22;45728;48.788;2.302;2023-02-22T17:16:43;10.00;99.90
59847;DHT22;45728;48.788;2.302;2023-02-22T17:19:21;10.00;99.90
59847;DHT22;45728;48.788;2.302;2023-02-22T17:21:49;10.10;99.90
59847;DHT22;45728;48.788;2.302;2023-02-22T17:24:21;10.00;99.90
59847;DHT22;45728;48.788;2.302;2023-02-22T17:26:48;10.00;99.90
59847;DHT22;45728;48.788;2.302;2023-02-22T17:29:15;10.00;99.90
59847;DHT22;45728;48.788;2.302;2023-02-22T17:31:42;10.00;99.90
59847;DHT22;45728;48.788;2.302;2023-02-22T17:34:09;10.00;99.90
59847;DHT22;45728;48.788;2.302;2023-02-22T17:36:35;10.00;99.90
59847;DHT22;45728;48.788;2.302;2023-02-22T17:39:02;10.00;99.90
59847;DHT22;45728;48.788;2.302;2023-02-22T17:41:29;10.00;99.90
59847;DHT22;45728;48.788;2.302;2023-02-22T17:43:55;10.00;99.90
59847;DHT22;45728;48.788;2.302;2023-02-22T17:46:23;10.00;99.90
59847;DHT22;45728;48.788;2.302;2023-02-22T17:48:50;10.00;99.90
59847;DHT22;45728;48.788;2.302;2023-02-22T17:51:21;10.00;99.90
59847;DHT22;45728;48.788;2.302;2023-02-22T17:53:48;9.90;99.90
59847;DHT22;45728;48.788;2.302;2023-02-22T17:56:15;10.00;99.90
59847;DHT22;45728;48.788;2.302;2023-02-22T17:58:45;9.90;99.90
59847;DHT22;45728;48.788;2.302;2023-02-22T18:01:24;9.90;99.90
59847;DHT22;45728;48.788;2.302;2023-02-22T18:03:57;10.00;99.90
59847;DHT22;45728;48.788;2.302;2023-02-22T18:06:24;9.90;99.90
59847;DHT22;45728;48.788;2.302;2023-02-22T18:08:53;9.90;99.90
59847;DHT22;45728;48.788;2.302;2023-02-22T18:11:20;9.90;99.90
59847;DHT22;45728;48.788;2.302;2023-02-22T18:13:54;9.90;99.90
59847;DHT22;45728;48.788;2.302;2023-02-22T18:16:21;9.80;99.90
59847;DHT22;45728;48.788;2.302;2023-02-22T18:18:53;9.80;99.90
59847;DHT22;45728;48.788;2.302;2023-02-22T18:21:20;9.80;99.90
59847;DHT22;45728;48.788;2.302;2023-02-22T18:23:46;9.80;99.90
59847;DHT22;45728;48.788;2.302;2023-02-22T18:26:15;9.70;99.90
59847;DHT22;45728;48.788;2.302;2023-02-22T18:28:42;9.80;99.90
59847;DHT22;45728;48.788;2.302;2023-02-22T18:31:10;9.80;99.90
59847;DHT22;45728;48.788;2.302;2023-02-22T18:33:40;9.80;99.90
59847;DHT22;45728;48.788;2.302;2023-02-22T18:36:08;9.90;99.90
59847;DHT22;45728;48.788;2.302;2023-02-22T18:38:37;9.90;99.90
59847;DHT22;45728;48.788;2.302;2023-02-22T18:41:12;9.90;99.90
59847;DHT22;45728;48.788;2.302;2023-02-22T18:43:39;9.90;99.90
59847;DHT22;45728;48.788;2.302;2023-02-22T18:46:14;9.90;99.90
59847;DHT22;45728;48.788;2.302;2023-02-22T18:48:41;9.70;99.90
59847;DHT22;45728;48.788;2.302;2023-02-22T18:51:12;9.80;99.90
59847;DHT22;45728;48.788;2.302;2023-02-22T18:53:40;9.80;99.90
59847;DHT22;45728;48.788;2.302;2023-02-22T18:56:11;9.90;99.90
59847;DHT22;45728;48.788;2.302;2023-02-22T18:58:38;9.80;99.90
59847;DHT22;45728;48.788;2.302;2023-02-22T19:01:05;9.80;99.90